createdAt,value
2019-06-27T00:00:28.201Z,88.10
2019-06-27T00:01:28.132Z,87.12
2019-06-27T00:02:28.064Z,88.58
2019-06-27T00:03:28.000Z,88.87
2019-06-27T00:04:27.923Z,89.55
2019-06-27T00:05:27.854Z,89.75
2019-06-27T00:06:27.781Z,89.17
2019-06-27T00:07:27.712Z,89.07
2019-06-27T00:08:27.642Z,89.94
2019-06-27T00:09:27.571Z,89.45
2019-06-27T00:10:27.502Z,88.78
2019-06-27T00:11:27.429Z,88.87
2019-06-27T00:12:27.371Z,89.45
2019-06-27T00:13:27.292Z,90.23
2019-06-27T00:14:27.218Z,89.98
2019-06-27T00:15:27.148Z,90.42
2019-06-27T00:16:27.083Z,90.04
2019-06-27T00:17:27.011Z,88.87
2019-06-27T00:18:26.942Z,88.39
2019-06-27T00:19:26.868Z,88.97
2019-06-27T00:20:26.796Z,88.29
2019-06-27T00:21:26.729Z,89.07
2019-06-27T00:22:26.658Z,87.81
2019-06-27T00:23:26.586Z,87.81
2019-06-27T00:24:26.523Z,87.41
2019-06-27T00:25:26.449Z,87.22
2019-06-27T00:26:26.379Z,88.15
2019-06-27T00:27:26.307Z,88.19
2019-06-27T00:28:26.235Z,88.19
2019-06-27T00:29:26.166Z,86.74
2019-06-27T00:30:26.108Z,87.12
2019-06-27T00:31:26.022Z,87.32
2019-06-27T00:32:25.955Z,87.90
2019-06-27T00:33:25.886Z,88.58
2019-06-27T00:34:25.814Z,89.07
2019-06-27T00:35:25.748Z,88.19
2019-06-27T00:36:25.676Z,87.81
2019-06-27T00:37:25.605Z,87.32
2019-06-27T00:38:25.535Z,87.41
2019-06-27T00:39:25.467Z,89.07
2019-06-27T00:40:25.395Z,88.78
2019-06-27T00:41:25.324Z,88.10
2019-06-27T00:42:25.254Z,88.48
2019-06-27T00:43:25.220Z,88.97
2019-06-27T00:44:25.114Z,89.94
2019-06-27T00:45:25.042Z,88.87
2019-06-27T00:46:24.974Z,89.75
2019-06-27T00:47:24.904Z,90.23
2019-06-27T00:48:24.827Z,89.36
2019-06-27T00:49:24.766Z,88.54
2019-06-27T00:50:24.692Z,88.34
2019-06-27T00:51:24.623Z,87.96
2019-06-27T00:52:24.554Z,88.64
2019-06-27T00:53:24.477Z,88.15
2019-06-27T00:54:24.414Z,87.76
2019-06-27T00:55:24.379Z,87.18
2019-06-27T00:56:24.264Z,87.57
2019-06-27T00:57:24.198Z,86.89
2019-06-27T00:58:24.128Z,87.47
2019-06-27T00:59:24.054Z,86.69
2019-06-27T01:00:23.988Z,85.82
2019-06-27T01:01:23.914Z,87.47
2019-06-27T01:02:23.844Z,86.99
2019-06-27T01:03:23.775Z,87.86
2019-06-27T01:04:23.702Z,88.54
2019-06-27T01:05:23.638Z,88.05
2019-06-27T01:06:23.564Z,88.15
2019-06-27T01:07:23.492Z,88.24
2019-06-27T01:08:23.425Z,88.15
2019-06-27T01:09:23.355Z,89.03
2019-06-27T01:10:23.281Z,90.87
2019-06-27T01:11:23.205Z,91.35
2019-06-27T01:12:23.138Z,93.01
2019-06-27T01:13:23.067Z,91.64
2019-06-27T01:14:22.999Z,92.03
2019-06-27T01:15:22.927Z,91.94
2019-06-27T01:16:22.856Z,91.25
2019-06-27T01:17:22.783Z,90.97
2019-06-27T01:18:22.723Z,91.06
2019-06-27T01:19:22.645Z,90.28
2019-06-27T01:20:22.575Z,91.25
2019-06-27T01:21:22.497Z,89.90
2019-06-27T01:22:22.432Z,90.48
2019-06-27T01:23:22.360Z,91.06
2019-06-27T01:24:22.292Z,91.06
2019-06-27T01:25:22.219Z,91.45
2019-06-27T01:26:22.151Z,92.03
2019-06-27T01:27:29.938Z,90.00
2019-06-27T01:28:22.006Z,89.90
2019-06-27T01:29:21.940Z,88.83
2019-06-27T01:30:21.867Z,89.90
2019-06-27T01:31:21.796Z,89.31
2019-06-27T01:32:21.725Z,90.09
2019-06-27T01:33:21.649Z,88.24
2019-06-27T01:34:21.590Z,89.90
2019-06-27T01:35:21.519Z,90.19
2019-06-27T01:36:21.437Z,89.31
2019-06-27T01:37:21.374Z,89.61
2019-06-27T01:38:21.301Z,89.90
2019-06-27T01:39:21.230Z,89.90
2019-06-27T01:40:21.159Z,89.03
2019-06-27T01:41:21.127Z,88.05
2019-06-27T01:42:21.023Z,89.03
2019-06-27T01:43:20.953Z,88.64
2019-06-27T01:44:20.875Z,88.88
2019-06-27T01:45:20.809Z,89.17
2019-06-27T01:46:20.739Z,88.30
2019-06-27T01:47:20.665Z,88.79
2019-06-27T01:48:20.594Z,87.82
2019-06-27T01:49:20.528Z,88.40
2019-06-27T01:50:20.470Z,88.88
2019-06-27T01:51:20.396Z,88.79
2019-06-27T01:52:20.311Z,88.54
2019-06-27T01:53:20.241Z,87.23
2019-06-27T01:54:20.166Z,87.08
2019-06-27T01:55:20.100Z,87.76
2019-06-27T01:56:20.029Z,88.24
2019-06-27T01:57:19.959Z,88.20
2019-06-27T01:58:19.888Z,88.20
2019-06-27T01:59:19.843Z,88.49
2019-06-27T02:00:19.744Z,87.72
2019-06-27T02:01:19.680Z,87.82
2019-06-27T02:02:19.603Z,87.43
2019-06-27T02:03:19.536Z,86.65
2019-06-27T02:04:19.472Z,86.75
2019-06-27T02:05:19.403Z,86.07
2019-06-27T02:06:19.322Z,85.39
2019-06-27T02:07:19.251Z,86.36
2019-06-27T02:08:19.179Z,86.26
2019-06-27T02:09:19.110Z,85.78
2019-06-27T02:10:19.038Z,86.16
2019-06-27T02:11:18.971Z,87.62
2019-06-27T02:12:18.895Z,88.30
2019-06-27T02:13:18.830Z,88.01
2019-06-27T02:14:18.770Z,88.10
2019-06-27T02:15:21.965Z,87.23
2019-06-27T02:16:18.614Z,87.43
2019-06-27T02:17:18.535Z,89.17
2019-06-27T02:18:18.466Z,88.10
2019-06-27T02:19:18.404Z,89.85
2019-06-27T02:20:18.334Z,89.17
2019-06-27T02:21:18.256Z,89.76
2019-06-27T02:22:18.190Z,88.49
2019-06-27T02:23:18.115Z,88.79
2019-06-27T02:24:18.052Z,89.07
2019-06-27T02:25:17.978Z,89.07
2019-06-27T02:26:17.906Z,88.88
2019-06-27T02:27:17.833Z,90.20
2019-06-27T02:28:17.760Z,89.42
2019-06-27T02:29:17.691Z,90.10
2019-06-27T02:30:17.620Z,91.55
2019-06-27T02:31:17.548Z,92.72
2019-06-27T02:32:17.480Z,93.98
2019-06-27T02:33:17.407Z,93.79
2019-06-27T02:34:17.350Z,94.22
2019-06-27T02:35:17.269Z,93.98
2019-06-27T02:36:17.197Z,93.40
2019-06-27T02:37:17.122Z,92.23
2019-06-27T02:38:17.054Z,92.38
2019-06-27T02:39:16.984Z,91.85
2019-06-27T02:40:16.912Z,91.65
2019-06-27T02:41:16.842Z,93.05
2019-06-27T02:42:16.777Z,92.47
2019-06-27T02:43:16.701Z,91.70
2019-06-27T02:44:16.624Z,91.31
2019-06-27T02:45:16.564Z,91.55
2019-06-27T02:46:16.489Z,91.89
2019-06-27T02:47:16.414Z,89.66
2019-06-27T02:48:16.361Z,90.53
2019-06-27T02:49:16.276Z,90.24
2019-06-27T02:50:16.202Z,89.95
2019-06-27T02:51:16.132Z,88.84
2019-06-27T02:52:16.055Z,87.77
2019-06-27T02:53:15.990Z,88.74
2019-06-27T02:54:15.918Z,88.74
2019-06-27T02:55:15.853Z,87.58
2019-06-27T02:56:15.775Z,86.41
2019-06-27T02:57:15.702Z,85.64
2019-06-27T02:58:29.629Z,85.54
2019-06-27T02:59:15.565Z,84.19
2019-06-27T03:00:15.538Z,83.89
2019-06-27T03:01:15.422Z,84.19
2019-06-27T03:02:15.349Z,85.15
2019-06-27T03:03:15.279Z,84.47
2019-06-27T03:04:15.221Z,83.99
2019-06-27T03:05:15.135Z,85.35
2019-06-27T03:06:15.071Z,86.41
2019-06-27T03:07:15.037Z,85.44
2019-06-27T03:08:14.928Z,86.12
2019-06-27T03:09:14.856Z,84.96
2019-06-27T03:10:14.784Z,84.86
2019-06-27T03:11:14.715Z,85.25
2019-06-27T03:12:14.642Z,85.54
2019-06-27T03:13:14.568Z,85.74
2019-06-27T03:14:14.502Z,85.54
2019-06-27T03:15:14.425Z,85.35
2019-06-27T03:16:14.359Z,86.12
2019-06-27T03:17:14.294Z,85.15
2019-06-27T03:18:14.211Z,86.12
2019-06-27T03:19:14.149Z,85.93
2019-06-27T03:20:14.073Z,86.61
2019-06-27T03:21:14.051Z,86.71
2019-06-27T03:22:13.928Z,89.52
2019-06-27T03:23:13.857Z,88.84
2019-06-27T03:24:13.784Z,92.14
2019-06-27T03:25:13.718Z,92.52
2019-06-27T03:26:13.646Z,93.40
2019-06-27T03:27:13.575Z,93.30
2019-06-27T03:28:13.501Z,93.69
2019-06-27T03:29:13.435Z,93.79
2019-06-27T03:30:13.356Z,93.69
2019-06-27T03:31:13.305Z,93.69
2019-06-27T03:32:13.220Z,93.30
2019-06-27T03:33:13.151Z,93.30
2019-06-27T03:34:13.073Z,92.91
2019-06-27T03:35:13.004Z,92.62
2019-06-27T03:36:12.949Z,92.23
2019-06-27T03:37:12.859Z,92.91
2019-06-27T03:38:12.792Z,92.72
2019-06-27T03:39:12.716Z,95.14
2019-06-27T03:40:12.649Z,96.21
2019-06-27T03:41:12.588Z,95.14
2019-06-27T03:42:12.501Z,96.21
2019-06-27T03:43:12.441Z,96.21
2019-06-27T03:44:12.360Z,95.04
2019-06-27T03:45:15.650Z,95.92
2019-06-27T03:46:12.217Z,95.04
2019-06-27T03:47:12.155Z,95.24
2019-06-27T03:48:12.079Z,96.21
2019-06-27T03:49:12.012Z,95.73
2019-06-27T03:50:11.963Z,95.34
2019-06-27T03:51:11.887Z,95.43
2019-06-27T03:52:11.793Z,93.88
2019-06-27T03:53:11.728Z,95.04
2019-06-27T03:54:11.660Z,94.56
2019-06-27T03:55:11.578Z,94.56
2019-06-27T03:56:11.507Z,96.01
2019-06-27T03:57:11.442Z,95.82
2019-06-27T03:58:11.373Z,95.34
2019-06-27T03:59:13.577Z,96.21
2019-06-27T04:00:11.234Z,95.73
2019-06-27T04:01:11.156Z,95.82
2019-06-27T04:02:11.085Z,96.21
2019-06-27T04:03:11.014Z,93.88
2019-06-27T04:04:10.941Z,96.11
2019-06-27T04:05:10.871Z,95.82
2019-06-27T04:06:10.806Z,94.95
2019-06-27T04:07:10.724Z,95.63
2019-06-27T04:08:10.658Z,96.21
2019-06-27T04:09:10.588Z,96.31
2019-06-27T04:10:10.521Z,96.21
2019-06-27T04:11:10.446Z,95.24
2019-06-27T04:12:10.373Z,95.77
2019-06-27T04:13:10.332Z,95.57
2019-06-27T04:14:10.229Z,96.89
2019-06-27T04:15:10.295Z,96.55
2019-06-27T04:16:10.097Z,95.29
2019-06-27T04:17:10.021Z,96.06
2019-06-27T04:18:09.949Z,96.06
2019-06-27T04:19:09.877Z,96.74
2019-06-27T04:20:09.813Z,95.48
2019-06-27T04:21:09.739Z,95.67
2019-06-27T04:22:09.667Z,95.29
2019-06-27T04:23:09.594Z,95.67
2019-06-27T04:24:09.522Z,95.29
2019-06-27T04:25:09.454Z,96.26
2019-06-27T04:26:09.380Z,96.45
2019-06-27T04:27:09.311Z,95.77
2019-06-27T04:28:09.238Z,95.97
2019-06-27T04:29:09.163Z,95.29
2019-06-27T04:30:09.112Z,95.48
2019-06-27T04:31:09.031Z,96.26
2019-06-27T04:32:08.955Z,96.26
2019-06-27T04:33:08.885Z,94.80
2019-06-27T04:34:08.813Z,95.87
2019-06-27T04:35:08.745Z,96.16
2019-06-27T04:36:08.675Z,96.16
2019-06-27T04:37:08.602Z,96.45
2019-06-27T04:38:08.531Z,96.26
2019-06-27T04:39:08.533Z,96.26
2019-06-27T04:40:08.481Z,96.16
2019-06-27T04:41:08.318Z,95.29
2019-06-27T04:42:08.250Z,95.77
2019-06-27T04:43:08.178Z,94.90
2019-06-27T04:44:08.105Z,94.90
2019-06-27T04:45:08.036Z,94.80
2019-06-27T04:46:07.962Z,95.29
2019-06-27T04:47:07.894Z,94.70
2019-06-27T04:48:07.832Z,95.77
2019-06-27T04:49:13.016Z,95.39
2019-06-27T04:50:07.684Z,93.93
2019-06-27T04:51:07.613Z,94.42
2019-06-27T04:52:07.543Z,95.77
2019-06-27T04:53:07.497Z,96.16
2019-06-27T04:54:07.401Z,95.57
2019-06-27T04:55:07.328Z,94.22
2019-06-27T04:56:07.275Z,94.70
2019-06-27T04:57:07.199Z,94.80
2019-06-27T04:58:07.114Z,94.51
2019-06-27T04:59:07.054Z,93.83
2019-06-27T05:00:06.995Z,95.29
2019-06-27T05:01:06.902Z,95.67
2019-06-27T05:02:06.837Z,94.42
2019-06-27T05:03:06.762Z,94.80
2019-06-27T05:04:06.695Z,94.70
2019-06-27T05:05:06.628Z,94.51
2019-06-27T05:06:06.546Z,95.67
2019-06-27T05:07:06.484Z,95.00
2019-06-27T05:08:06.414Z,94.60
2019-06-27T05:09:06.370Z,93.68
2019-06-27T05:10:06.274Z,95.33
2019-06-27T05:11:06.197Z,95.04
2019-06-27T05:12:06.129Z,95.43
2019-06-27T05:13:06.063Z,95.14
2019-06-27T05:14:05.985Z,93.78
2019-06-27T05:15:05.916Z,93.98
2019-06-27T05:16:05.847Z,94.56
2019-06-27T05:17:05.778Z,94.75
2019-06-27T05:18:05.703Z,95.33
2019-06-27T05:19:05.636Z,94.36
2019-06-27T05:20:05.570Z,93.49
2019-06-27T05:21:05.492Z,95.33
2019-06-27T05:22:05.423Z,96.21
2019-06-27T05:23:05.350Z,93.39
2019-06-27T05:24:05.285Z,93.20
2019-06-27T05:25:05.211Z,93.39
2019-06-27T05:26:05.140Z,94.26
2019-06-27T05:27:05.072Z,95.33
2019-06-27T05:28:05.000Z,94.17
2019-06-27T05:29:04.921Z,94.65
2019-06-27T05:30:09.862Z,94.65
2019-06-27T05:31:04.781Z,95.04
2019-06-27T05:32:04.927Z,95.24
2019-06-27T05:33:04.717Z,96.69
2019-06-27T05:34:04.703Z,96.01
2019-06-27T05:35:04.524Z,93.59
2019-06-27T05:36:04.472Z,95.53
2019-06-27T05:37:04.375Z,95.62
2019-06-27T05:38:04.397Z,95.72
2019-06-27T05:39:04.241Z,95.33
2019-06-27T05:40:04.151Z,95.24
2019-06-27T05:41:04.090Z,95.62
2019-06-27T05:42:04.006Z,95.53
2019-06-27T05:43:03.937Z,96.31
2019-06-27T05:44:03.870Z,94.75
2019-06-27T05:45:03.816Z,94.75
2019-06-27T05:46:03.728Z,94.75
2019-06-27T05:47:03.656Z,94.75
2019-06-27T05:48:03.589Z,94.75
2019-06-27T05:49:03.519Z,94.95
2019-06-27T05:50:03.451Z,95.04
2019-06-27T05:51:03.379Z,94.56
2019-06-27T05:52:03.308Z,95.92
2019-06-27T05:53:03.254Z,95.62
2019-06-27T05:54:03.168Z,95.43
2019-06-27T05:55:03.094Z,95.62
2019-06-27T05:56:03.026Z,94.85
2019-06-27T05:57:02.955Z,94.95
2019-06-27T05:58:02.888Z,95.14
2019-06-27T05:59:02.830Z,95.14
2019-06-27T06:00:02.746Z,95.82
2019-06-27T06:01:02.672Z,95.72
2019-06-27T06:02:02.598Z,95.82
2019-06-27T06:03:02.583Z,94.46
2019-06-27T06:04:02.464Z,94.75
2019-06-27T06:05:02.409Z,94.56
2019-06-27T06:06:02.322Z,93.59
2019-06-27T06:07:02.287Z,94.85
2019-06-27T06:08:02.183Z,95.14
2019-06-27T06:09:02.111Z,94.56
2019-06-27T06:10:02.200Z,94.36
2019-06-27T06:11:01.967Z,94.95
2019-06-27T06:12:01.897Z,95.82
2019-06-27T06:13:01.840Z,94.95
2019-06-27T06:14:01.757Z,94.36
2019-06-27T06:15:01.687Z,94.85
2019-06-27T06:16:01.713Z,93.88
2019-06-27T06:17:01.547Z,94.17
2019-06-27T06:18:01.477Z,94.46
2019-06-27T06:19:01.403Z,95.04
2019-06-27T06:20:01.350Z,94.95
2019-06-27T06:21:01.267Z,94.95
2019-06-27T06:22:01.198Z,93.20
2019-06-27T06:23:01.129Z,94.75
2019-06-27T06:24:01.053Z,94.75
2019-06-27T06:25:00.991Z,94.95
2019-06-27T06:26:00.925Z,94.36
2019-06-27T06:27:00.844Z,94.85
2019-06-27T06:28:00.771Z,94.75
2019-06-27T06:29:00.700Z,94.75
2019-06-27T06:30:00.628Z,93.98
2019-06-27T06:31:00.562Z,94.99
2019-06-27T06:32:00.490Z,95.33
2019-06-27T06:33:00.450Z,96.31
2019-06-27T06:34:00.360Z,95.72
2019-06-27T06:35:00.285Z,95.82
2019-06-27T06:36:00.210Z,94.26
2019-06-27T06:37:00.165Z,94.56
2019-06-27T06:38:00.068Z,95.82
2019-06-27T06:38:59.998Z,94.07
2019-06-27T06:39:59.961Z,94.17
2019-06-27T06:40:59.922Z,92.91
2019-06-27T06:41:59.788Z,94.07
2019-06-27T06:43:00.693Z,95.14
2019-06-27T06:43:59.653Z,94.46
2019-06-27T06:44:59.584Z,93.29
2019-06-27T06:45:59.509Z,93.73
2019-06-27T06:46:59.606Z,94.17
2019-06-27T06:47:59.371Z,94.02
2019-06-27T06:48:59.400Z,93.59
2019-06-27T06:49:59.229Z,93.59
2019-06-27T06:50:59.260Z,94.17
2019-06-27T06:51:59.097Z,94.26
2019-06-27T06:52:59.015Z,94.56
2019-06-27T06:53:58.945Z,94.21
2019-06-27T06:54:58.879Z,93.20
2019-06-27T06:55:58.815Z,94.80
2019-06-27T06:56:58.739Z,94.46
2019-06-27T06:57:58.662Z,94.70
2019-06-27T06:58:58.592Z,94.80
2019-06-27T06:59:58.530Z,95.18
2019-06-27T07:01:01.897Z,94.26
2019-06-27T07:01:58.503Z,95.18
2019-06-27T07:02:58.312Z,96.11
2019-06-27T07:03:58.242Z,95.82
2019-06-27T07:04:58.178Z,95.48
2019-06-27T07:05:58.097Z,95.18
2019-06-27T07:06:58.080Z,95.87
2019-06-27T07:07:57.979Z,96.31
2019-06-27T07:08:57.894Z,94.70
2019-06-27T07:09:57.832Z,93.98
2019-06-27T07:10:57.747Z,93.24
2019-06-27T07:11:57.680Z,94.02
2019-06-27T07:12:57.620Z,91.88
2019-06-27T07:13:57.541Z,93.15
2019-06-27T07:14:57.509Z,92.27
2019-06-27T07:15:57.400Z,93.44
2019-06-27T07:16:57.329Z,94.02
2019-06-27T07:17:57.260Z,95.87
2019-06-27T07:18:57.192Z,94.21
2019-06-27T07:19:57.688Z,94.41
2019-06-27T07:20:57.052Z,95.57
2019-06-27T07:21:56.981Z,95.09
2019-06-27T07:22:56.908Z,94.02
2019-06-27T07:23:56.842Z,92.95
2019-06-27T07:24:56.774Z,94.70
2019-06-27T07:25:56.709Z,94.60
2019-06-27T07:26:56.634Z,92.66
2019-06-27T07:27:56.560Z,94.02
2019-06-27T07:28:56.493Z,96.25
2019-06-27T07:29:56.418Z,94.99
2019-06-27T07:30:56.351Z,93.15
2019-06-27T07:31:56.277Z,93.73
2019-06-27T07:32:56.215Z,94.02
2019-06-27T07:33:56.137Z,97.52
2019-06-27T07:34:56.070Z,96.35
2019-06-27T07:35:55.998Z,95.09
2019-06-27T07:36:55.931Z,94.80
2019-06-27T07:37:55.859Z,95.67
2019-06-27T07:38:55.801Z,95.18
2019-06-27T07:39:55.723Z,95.97
2019-06-27T07:40:55.658Z,96.74
2019-06-27T07:41:55.583Z,96.74
2019-06-27T07:42:55.509Z,95.57
2019-06-27T07:43:55.451Z,96.15
2019-06-27T07:44:55.372Z,96.35
2019-06-27T07:45:55.308Z,95.97
2019-06-27T07:46:55.234Z,95.38
2019-06-27T07:47:55.171Z,95.18
2019-06-27T07:48:55.101Z,94.80
2019-06-27T07:49:55.027Z,94.21
2019-06-27T07:50:54.958Z,95.57
2019-06-27T07:51:54.883Z,95.18
2019-06-27T07:52:54.845Z,94.99
2019-06-27T07:53:54.752Z,93.87
2019-06-27T07:54:54.671Z,96.59
2019-06-27T07:55:54.622Z,97.71
2019-06-27T07:56:54.531Z,95.48
2019-06-27T07:57:54.465Z,98.88
2019-06-27T07:58:54.392Z,96.55
2019-06-27T07:59:54.324Z,96.84
2019-06-27T08:00:54.250Z,96.25
2019-06-27T08:01:54.190Z,95.97
2019-06-27T08:02:54.119Z,95.62
2019-06-27T08:03:54.047Z,95.91
2019-06-27T08:04:53.979Z,97.47
2019-06-27T08:05:53.907Z,97.56
2019-06-27T08:06:53.835Z,96.20
2019-06-27T08:07:53.762Z,95.91
2019-06-27T08:08:53.699Z,96.89
2019-06-27T08:09:53.689Z,97.17
2019-06-27T08:10:53.553Z,96.74
2019-06-27T08:11:53.491Z,97.08
2019-06-27T08:12:53.412Z,96.15
2019-06-27T08:13:53.355Z,96.79
2019-06-27T08:14:53.271Z,96.20
2019-06-27T08:15:53.209Z,96.40
2019-06-27T08:16:53.133Z,96.11
2019-06-27T08:17:53.071Z,97.66
2019-06-27T08:18:53.005Z,98.93
2019-06-27T08:19:52.969Z,96.98
2019-06-27T08:20:52.853Z,97.27
2019-06-27T08:21:52.798Z,98.15
2019-06-27T08:22:52.720Z,97.76
2019-06-27T08:23:52.648Z,96.98
2019-06-27T08:24:52.581Z,98.73
2019-06-27T08:25:52.508Z,97.56
2019-06-27T08:26:52.445Z,97.56
2019-06-27T08:27:52.370Z,97.17
2019-06-27T08:28:52.304Z,97.17
2019-06-27T08:29:52.233Z,97.08
2019-06-27T08:30:52.161Z,97.66
2019-06-27T08:31:52.328Z,97.56
2019-06-27T08:32:52.020Z,93.29
2019-06-27T08:33:51.955Z,96.40
2019-06-27T08:34:51.890Z,96.20
2019-06-27T08:35:51.821Z,95.53
2019-06-27T08:36:51.749Z,95.91
2019-06-27T08:37:51.685Z,96.40
2019-06-27T08:38:51.602Z,95.14
2019-06-27T08:39:51.541Z,95.72
2019-06-27T08:40:51.460Z,96.01
2019-06-27T08:41:51.395Z,97.66
2019-06-27T08:42:51.325Z,97.17
2019-06-27T08:43:51.255Z,96.11
2019-06-27T08:44:51.188Z,96.30
2019-06-27T08:45:51.121Z,96.40
2019-06-27T08:46:51.059Z,96.69
2019-06-27T08:47:50.978Z,96.98
2019-06-27T08:48:50.911Z,96.20
2019-06-27T08:49:50.844Z,96.20
2019-06-27T08:50:50.773Z,95.81
2019-06-27T08:51:50.701Z,95.33
2019-06-27T08:52:50.629Z,94.74
2019-06-27T08:53:50.567Z,93.29
2019-06-27T08:54:50.493Z,94.74
2019-06-27T08:55:50.430Z,93.24
2019-06-27T08:56:50.354Z,98.25
2019-06-27T08:57:50.287Z,97.13
2019-06-27T08:58:50.218Z,97.32
2019-06-27T08:59:50.143Z,96.74
2019-06-27T09:00:50.092Z,96.25
2019-06-27T09:01:50.067Z,97.13
2019-06-27T09:02:49.937Z,97.22
2019-06-27T09:03:49.870Z,98.10
2019-06-27T09:04:49.799Z,98.39
2019-06-27T09:05:49.733Z,98.10
2019-06-27T09:06:49.663Z,97.22
2019-06-27T09:07:49.593Z,97.22
2019-06-27T09:08:49.526Z,97.71
2019-06-27T09:09:49.452Z,97.22
2019-06-27T09:10:49.383Z,97.81
2019-06-27T09:11:49.322Z,97.52
2019-06-27T09:12:49.249Z,96.35
2019-06-27T09:13:49.177Z,94.89
2019-06-27T09:14:49.110Z,95.67
2019-06-27T09:15:49.037Z,97.22
2019-06-27T09:16:48.971Z,98.39
2019-06-27T09:17:48.899Z,96.64
2019-06-27T09:18:48.832Z,97.22
2019-06-27T09:19:48.766Z,95.86
2019-06-27T09:20:48.705Z,96.25
2019-06-27T09:21:48.622Z,95.76
2019-06-27T09:22:48.556Z,95.09
2019-06-27T09:23:48.487Z,93.82
2019-06-27T09:24:48.416Z,94.11
2019-06-27T09:25:48.348Z,94.60
2019-06-27T09:26:48.274Z,94.11
2019-06-27T09:27:48.210Z,95.09
2019-06-27T09:28:48.142Z,94.60
2019-06-27T09:29:48.078Z,94.89
2019-06-27T09:30:47.996Z,97.52
2019-06-27T09:31:47.938Z,95.57
2019-06-27T09:32:47.867Z,95.28
2019-06-27T09:33:47.796Z,95.76
2019-06-27T09:34:47.726Z,94.99
2019-06-27T09:35:47.656Z,95.47
2019-06-27T09:36:47.592Z,95.86
2019-06-27T09:37:47.549Z,96.64
2019-06-27T09:38:47.458Z,97.22
2019-06-27T09:39:47.384Z,98.97
2019-06-27T09:40:47.311Z,96.88
2019-06-27T09:41:47.241Z,98.93
2019-06-27T09:42:47.186Z,99.99
2019-06-27T09:43:47.109Z,99.32
2019-06-27T09:44:47.034Z,98.63
2019-06-27T09:45:46.971Z,99.90
2019-06-27T09:46:46.895Z,99.99
2019-06-27T09:47:46.835Z,99.02
2019-06-27T09:48:46.764Z,99.99
2019-06-27T09:49:46.694Z,99.99
2019-06-27T09:50:46.623Z,99.99
2019-06-27T09:51:46.567Z,99.99
2019-06-27T09:52:46.488Z,99.99
2019-06-27T09:53:46.416Z,99.95
2019-06-27T09:54:46.349Z,99.37
2019-06-27T09:55:47.495Z,99.99
2019-06-27T09:56:46.207Z,99.99
2019-06-27T09:57:46.139Z,99.99
2019-06-27T09:58:46.069Z,99.99
2019-06-27T09:59:46.008Z,99.99
2019-06-27T10:00:45.939Z,99.66
2019-06-27T10:01:45.869Z,97.81
2019-06-27T10:02:45.800Z,97.81
2019-06-27T10:03:45.729Z,99.99
2019-06-27T10:04:45.665Z,99.56
2019-06-27T10:05:45.607Z,99.27
2019-06-27T10:06:45.522Z,99.99
2019-06-27T10:07:45.457Z,99.99
2019-06-27T10:08:45.388Z,99.07
2019-06-27T10:09:45.317Z,99.99
2019-06-27T10:10:45.248Z,99.95
2019-06-27T10:11:45.180Z,99.99
2019-06-27T10:12:45.109Z,99.99
2019-06-27T10:13:45.040Z,99.56
2019-06-27T10:14:44.974Z,99.99
2019-06-27T10:15:44.904Z,98.83
2019-06-27T10:16:44.842Z,99.99
2019-06-27T10:17:44.768Z,99.99
2019-06-27T10:18:44.715Z,99.99
2019-06-27T10:19:44.635Z,99.99
2019-06-27T10:20:44.559Z,99.71
2019-06-27T10:21:44.494Z,99.51
2019-06-27T10:22:44.429Z,99.99
2019-06-27T10:23:44.390Z,99.71
2019-06-27T10:24:44.287Z,99.80
2019-06-27T10:25:44.225Z,99.22
2019-06-27T10:26:44.228Z,99.90
2019-06-27T10:27:44.086Z,99.99
2019-06-27T10:28:44.041Z,99.41
2019-06-27T10:29:43.947Z,99.80
2019-06-27T10:30:43.879Z,99.41
2019-06-27T10:31:43.851Z,99.80
2019-06-27T10:32:57.800Z,99.99
2019-06-27T10:33:43.727Z,99.80
2019-06-27T10:34:43.606Z,99.99
2019-06-27T10:35:43.545Z,98.54
2019-06-27T10:36:43.469Z,99.99
2019-06-27T10:37:43.398Z,98.34
2019-06-27T10:38:43.333Z,99.02
2019-06-27T10:39:43.262Z,98.44
2019-06-27T10:40:43.194Z,99.22
2019-06-27T10:41:43.129Z,99.99
2019-06-27T10:42:43.057Z,99.71
2019-06-27T10:43:43.014Z,99.99
2019-06-27T10:44:42.938Z,99.41
2019-06-27T10:45:42.853Z,99.07
2019-06-27T10:46:42.799Z,98.49
2019-06-27T10:47:42.718Z,99.37
2019-06-27T10:48:42.645Z,98.78
2019-06-27T10:49:42.577Z,98.68
2019-06-27T10:50:42.511Z,98.58
2019-06-27T10:51:42.463Z,99.46
2019-06-27T10:52:42.378Z,99.37
2019-06-27T10:53:42.310Z,99.46
2019-06-27T10:54:42.240Z,99.46
2019-06-27T10:55:42.204Z,99.99
2019-06-27T10:56:42.109Z,98.97
2019-06-27T10:57:42.035Z,96.88
2019-06-27T10:58:41.985Z,96.20
2019-06-27T10:59:41.901Z,93.76
2019-06-27T11:00:41.832Z,93.08
2019-06-27T11:01:41.764Z,88.01
2019-06-27T11:02:41.697Z,87.23
2019-06-27T11:03:41.641Z,80.31
2019-06-27T11:04:41.573Z,76.12
2019-06-27T11:05:41.503Z,75.04
2019-06-27T11:06:41.426Z,81.57
2019-06-27T11:07:41.408Z,82.84
2019-06-27T11:08:41.292Z,84.11
2019-06-27T11:09:41.231Z,86.55
2019-06-27T11:10:41.167Z,88.20
2019-06-27T11:11:41.087Z,87.23
2019-06-27T11:12:44.714Z,77.78
2019-06-27T11:13:40.953Z,82.30
2019-06-27T11:14:40.887Z,76.45
2019-06-27T11:15:40.822Z,79.96
2019-06-27T11:16:40.754Z,75.76
2019-06-27T11:17:40.686Z,79.66
2019-06-27T11:18:40.619Z,79.66
2019-06-27T11:19:51.819Z,85.61
2019-06-27T11:20:40.480Z,80.15
2019-06-27T11:21:40.416Z,82.79
2019-06-27T11:22:40.361Z,84.34
2019-06-27T11:23:40.278Z,83.27
2019-06-27T11:24:40.219Z,86.30
2019-06-27T11:25:40.162Z,88.73
2019-06-27T11:26:40.082Z,77.62
2019-06-27T11:27:40.033Z,78.69
2019-06-27T11:28:39.946Z,81.52
2019-06-27T11:29:39.879Z,81.71
2019-06-27T11:30:39.814Z,79.17
2019-06-27T11:31:39.744Z,80.54
2019-06-27T11:32:39.707Z,85.91
2019-06-27T11:33:39.611Z,81.42
2019-06-27T11:34:39.551Z,78.34
2019-06-27T11:35:39.480Z,77.42
2019-06-27T11:36:39.413Z,75.80
2019-06-27T11:37:39.342Z,79.41
2019-06-27T11:38:39.284Z,72.49
2019-06-27T11:39:39.212Z,78.34
2019-06-27T11:40:39.142Z,72.00
2019-06-27T11:41:39.076Z,74.05
2019-06-27T11:42:39.005Z,74.54
2019-06-27T11:43:38.942Z,76.13
2019-06-27T11:44:38.878Z,73.99
2019-06-27T11:45:38.815Z,75.84
2019-06-27T11:46:38.737Z,76.03
2019-06-27T11:47:38.676Z,77.98
2019-06-27T11:48:38.616Z,78.67
2019-06-27T11:49:38.541Z,71.55
2019-06-27T11:50:38.476Z,73.79
2019-06-27T11:51:38.402Z,77.01
2019-06-27T11:53:45.918Z,81.84
2019-06-27T11:55:42.622Z,82.32
2019-06-27T11:56:42.536Z,77.93
2019-06-27T11:58:46.865Z,74.71
2019-06-27T11:59:46.785Z,82.32
2019-06-27T12:01:51.104Z,83.30
2019-06-27T12:02:51.033Z,81.84
2019-06-27T12:04:55.373Z,76.76
2019-06-27T12:05:55.286Z,68.07
2019-06-27T12:06:55.217Z,68.07
2019-06-27T12:07:55.164Z,69.73
2019-06-27T12:08:55.085Z,72.36
2019-06-27T12:09:55.024Z,71.88
2019-06-27T12:10:54.954Z,72.17
2019-06-27T12:11:54.890Z,74.02
2019-06-27T12:12:54.823Z,73.24
2019-06-27T12:13:54.755Z,76.27
2019-06-27T12:14:54.686Z,78.71
2019-06-27T12:15:54.620Z,74.71
2019-06-27T12:16:54.550Z,73.34
2019-06-27T12:17:54.499Z,69.53
2019-06-27T12:18:54.426Z,69.24
2019-06-27T12:19:54.365Z,65.14
2019-06-27T12:20:54.299Z,63.80
2019-06-27T12:21:54.228Z,63.70
2019-06-27T12:22:54.161Z,63.80
2019-06-27T12:23:54.101Z,62.36
2019-06-27T12:24:54.035Z,61.97
2019-06-27T12:25:53.971Z,63.93
2019-06-27T12:26:53.910Z,63.73
2019-06-27T12:27:53.848Z,65.30
2019-06-27T12:28:53.783Z,64.74
2019-06-27T12:29:53.732Z,69.08
2019-06-27T12:30:53.664Z,65.26
2019-06-27T12:31:53.607Z,64.67
2019-06-27T12:32:53.544Z,61.54
2019-06-27T12:34:06.092Z,63.79
2019-06-27T12:34:53.425Z,64.18
2019-06-27T12:35:53.366Z,62.42
2019-06-27T12:36:53.305Z,62.42
2019-06-27T12:37:53.246Z,60.96
2019-06-27T12:38:53.187Z,59.69
2019-06-27T12:39:53.131Z,60.17
2019-06-27T12:40:53.066Z,59.91
2019-06-27T12:41:53.010Z,61.60
2019-06-27T12:42:52.946Z,61.41
2019-06-27T12:43:52.890Z,59.58
2019-06-27T12:44:52.829Z,60.26
2019-06-27T12:45:52.768Z,59.97
2019-06-27T12:46:52.727Z,58.82
2019-06-27T12:47:52.654Z,57.35
2019-06-27T12:48:52.597Z,56.20
2019-06-27T12:50:02.360Z,55.24
2019-06-27T12:50:52.503Z,54.07
2019-06-27T12:51:52.479Z,54.95
2019-06-27T12:52:52.369Z,54.14
2019-06-27T12:53:55.487Z,54.53
2019-06-27T12:54:52.251Z,55.02
2019-06-27T12:55:52.196Z,54.07
2019-06-27T12:56:52.138Z,55.83